createdAt,value
2023-01-13T00:00:53.127Z,100596.28
2023-01-13T00:03:56.431Z,100615.34
2023-01-13T00:06:58.789Z,100598.22
2023-01-13T00:10:01.154Z,100603.66
2023-01-13T00:13:04.484Z,100600.50
2023-01-13T00:16:08.709Z,100594.94
2023-01-13T00:19:11.020Z,100597.22
2023-01-13T00:22:13.345Z,100597.41
2023-01-13T00:25:15.700Z,100587.03
2023-01-13T00:28:18.099Z,100588.03
2023-01-13T00:31:21.467Z,100578.81
2023-01-13T00:34:24.738Z,100578.16
2023-01-13T00:37:27.103Z,100569.13
2023-01-13T00:40:29.385Z,100571.78
2023-01-13T00:43:32.854Z,100582.44
2023-01-13T00:46:35.284Z,100592.97
2023-01-13T00:49:37.586Z,100588.22
2023-01-13T00:52:42.029Z,100585.75
2023-01-13T00:55:44.629Z,100582.63
2023-01-13T00:58:47.958Z,100592.28
2023-01-13T01:01:50.449Z,100587.81
2023-01-13T01:04:52.920Z,100590.94
2023-01-13T01:07:55.243Z,100578.59
2023-01-13T01:11:08.952Z,100575.50
2023-01-13T01:14:13.128Z,100581.09
2023-01-13T01:17:15.382Z,100574.53
2023-01-13T01:20:17.849Z,100569.06
2023-01-13T01:23:20.119Z,100565.28
2023-01-13T01:26:26.924Z,100551.78
2023-01-13T01:29:29.290Z,100561.63
2023-01-13T01:32:34.194Z,100556.69
2023-01-13T01:35:40.052Z,100551.28
2023-01-13T01:38:42.649Z,100551.91
2023-01-13T01:42:04.913Z,100553.69
2023-01-13T01:45:24.166Z,100559.25
2023-01-13T01:48:27.671Z,100542.13
2023-01-13T01:51:32.147Z,100536.88
2023-01-13T01:54:53.178Z,100544.09
2023-01-13T01:58:00.155Z,100541.19
2023-01-13T02:01:04.452Z,100528.69
2023-01-13T02:04:12.737Z,100541.19
2023-01-13T02:07:15.143Z,100521.56
2023-01-13T02:10:20.568Z,100516.50
2023-01-13T02:13:23.134Z,100525.00
2023-01-13T02:16:25.488Z,100533.81
2023-01-13T02:20:09.585Z,100523.84
2023-01-13T02:23:58.848Z,100525.25
2023-01-13T02:27:10.315Z,100529.50
2023-01-13T02:30:37.260Z,100526.38
2023-01-13T02:33:46.783Z,100514.03
2023-01-13T02:36:54.401Z,100511.69
2023-01-13T02:40:24.854Z,100514.28
2023-01-13T02:43:55.544Z,100511.13
2023-01-13T02:47:01.626Z,100509.66
2023-01-13T02:50:10.625Z,100492.53
2023-01-13T02:53:34.648Z,100507.44
2023-01-13T02:56:40.769Z,100498.34
2023-01-13T02:59:43.286Z,100498.47
2023-01-13T03:02:45.758Z,100502.09
2023-01-13T03:05:51.998Z,100504.66
2023-01-13T03:09:02.525Z,100496.66
2023-01-13T03:12:19.498Z,100490.03
2023-01-13T03:15:37.163Z,100481.28
2023-01-13T03:18:48.515Z,100491.19
2023-01-13T03:22:23.916Z,100490.25
2023-01-13T03:25:57.196Z,100480.72
2023-01-13T03:29:30.889Z,100478.72
2023-01-13T03:32:34.640Z,100498.56
2023-01-13T03:35:40.941Z,100486.22
2023-01-13T03:38:51.112Z,100483.72
2023-01-13T03:41:57.661Z,100472.81
2023-01-13T03:45:10.344Z,100473.56
2023-01-13T03:48:16.984Z,100467.56
2023-01-13T03:51:19.803Z,100469.63
2023-01-13T03:54:23.438Z,100460.13
2023-01-13T03:57:30.067Z,100465.53
2023-01-13T04:01:00.441Z,100471.97
2023-01-13T04:04:08.530Z,100454.97
2023-01-13T04:07:27.866Z,100464.19
2023-01-13T04:10:45.591Z,100461.59
2023-01-13T04:13:48.953Z,100468.81
2023-01-13T04:16:51.198Z,100474.06
2023-01-13T04:19:53.514Z,100465.81
2023-01-13T04:22:55.973Z,100473.22
2023-01-13T04:25:58.574Z,100474.06
2023-01-13T04:29:00.918Z,100477.47
2023-01-13T04:32:03.752Z,100473.63
2023-01-13T04:35:08.520Z,100481.75
2023-01-13T04:38:17.662Z,100480.19
2023-01-13T04:41:20.067Z,100479.53
2023-01-13T04:44:22.330Z,100469.66
2023-01-13T04:47:24.658Z,100475.22
2023-01-13T04:50:27.090Z,100461.34
2023-01-13T04:53:29.398Z,100475.56
2023-01-13T04:56:32.299Z,100486.56
2023-01-13T04:59:34.747Z,100468.34
2023-01-13T05:02:38.190Z,100489.38
2023-01-13T05:05:40.590Z,100490.56
2023-01-13T05:08:42.979Z,100487.28
2023-01-13T05:12:03.996Z,100487.06
2023-01-13T05:15:25.508Z,100487.09
2023-01-13T05:18:30.121Z,100477.78
2023-01-13T05:21:51.002Z,100463.78
2023-01-13T05:25:12.144Z,100500.47
2023-01-13T05:28:17.420Z,100477.38
2023-01-13T05:31:20.461Z,100472.28
2023-01-13T05:34:22.986Z,100505.53
2023-01-13T05:37:29.715Z,100480.41
2023-01-13T05:40:50.953Z,100506.56
2023-01-13T05:43:53.400Z,100488.16
2023-01-13T05:47:04.435Z,100488.41
2023-01-13T05:50:10.483Z,100480.31
2023-01-13T05:53:13.203Z,100524.00
2023-01-13T05:57:31.283Z,100471.06
2023-01-13T06:00:47.885Z,100482.88
2023-01-13T06:03:54.713Z,100513.94
2023-01-13T06:07:13.489Z,100489.09
2023-01-13T06:10:16.322Z,100517.47
2023-01-13T06:13:41.853Z,100461.03
2023-01-13T06:16:45.713Z,100483.69
2023-01-13T06:25:29.139Z,100487.75
2023-01-13T06:33:44.612Z,100461.38
2023-01-13T06:36:50.418Z,100501.94
2023-01-13T06:40:11.063Z,100500.06
2023-01-13T06:43:17.208Z,100506.06
2023-01-13T06:46:22.803Z,100522.38
2023-01-13T06:49:25.190Z,100510.56
2023-01-13T06:52:33.358Z,100518.41
2023-01-13T06:55:40.880Z,100519.34
2023-01-13T06:58:43.518Z,100517.91
2023-01-13T07:01:53.730Z,100507.06
2023-01-13T07:05:31.153Z,100502.72
2023-01-13T07:08:51.736Z,100505.63
2023-01-13T07:16:49.925Z,100493.13
2023-01-13T07:19:52.789Z,100490.28
2023-01-13T07:22:56.557Z,100531.59
2023-01-13T07:26:00.159Z,100525.31
2023-01-13T07:29:05.810Z,100532.59
2023-01-13T07:32:08.346Z,100529.66
2023-01-13T07:35:10.732Z,100511.50
2023-01-13T07:38:13.422Z,100503.03
2023-01-13T07:41:34.687Z,100518.72
2023-01-13T07:44:42.471Z,100514.69
2023-01-13T07:47:44.902Z,100487.91
2023-01-13T07:50:49.917Z,100544.84
2023-01-13T07:54:11.937Z,100490.03
2023-01-13T07:57:24.401Z,100520.03
2023-01-13T08:00:27.027Z,100520.69
2023-01-13T08:03:33.286Z,100543.31
2023-01-13T08:06:47.663Z,100521.22
2023-01-13T08:09:56.387Z,100520.97
2023-01-13T08:13:17.707Z,100547.13
2023-01-13T08:16:21.341Z,100538.38
2023-01-13T08:19:31.695Z,100525.78
2023-01-13T08:26:16.885Z,100580.44
2023-01-13T08:29:21.131Z,100567.75
2023-01-13T08:32:23.524Z,100577.78
2023-01-13T08:35:32.652Z,100591.88
2023-01-13T08:42:13.298Z,100559.47
2023-01-13T08:45:28.536Z,100562.25
2023-01-13T08:48:35.470Z,100557.22
2023-01-13T08:51:44.499Z,100549.41
2023-01-13T08:54:51.164Z,100548.66
2023-01-13T08:58:00.585Z,100603.19
2023-01-13T09:01:14.550Z,100556.19
2023-01-13T09:04:19.883Z,100574.25
2023-01-13T09:07:27.282Z,100580.31
2023-01-13T09:10:31.814Z,100608.63
2023-01-13T09:13:34.139Z,100566.75
2023-01-13T09:16:36.357Z,100592.22
2023-01-13T09:19:40.177Z,100583.75
2023-01-13T09:22:52.550Z,100600.31
2023-01-13T09:25:55.162Z,100574.47
2023-01-13T09:28:57.429Z,100562.34
2023-01-13T09:32:02.165Z,100568.44
2023-01-13T09:35:15.699Z,100587.59
2023-01-13T09:38:19.351Z,100564.06
2023-01-13T09:41:48.299Z,100571.56
2023-01-13T09:44:57.646Z,100562.19
2023-01-13T09:52:26.959Z,100540.38
2023-01-13T09:55:35.415Z,100561.88
2023-01-13T09:58:56.194Z,100587.53
2023-01-13T10:02:22.813Z,100589.13
2023-01-13T10:05:39.363Z,100553.03
2023-01-13T10:08:45.497Z,100568.56
2023-01-13T10:12:19.431Z,100562.66
2023-01-13T10:15:27.557Z,100554.88
2023-01-13T10:19:10.269Z,100571.28
2023-01-13T10:44:22.823Z,100568.78
2023-01-13T10:47:36.480Z,100560.97
2023-01-13T10:50:39.475Z,100552.06
2023-01-13T10:53:46.984Z,100519.06
2023-01-13T10:56:50.625Z,100546.00
2023-01-13T10:59:55.004Z,100488.03
2023-01-13T11:03:20.133Z,100525.56
2023-01-13T11:06:48.280Z,100479.88
2023-01-13T11:10:09.733Z,100523.09
2023-01-13T11:18:41.757Z,100472.69
2023-01-13T11:22:09.076Z,100511.63
2023-01-13T11:25:20.687Z,100510.13
2023-01-13T11:28:49.258Z,100507.34
2023-01-13T11:31:56.466Z,100478.78
2023-01-13T11:35:21.523Z,100494.53
2023-01-13T11:38:56.675Z,100488.97
2023-01-13T11:46:51.060Z,100485.91
2023-01-13T11:49:53.601Z,100477.97
2023-01-13T11:53:42.002Z,100477.72
2023-01-13T11:57:25.567Z,100480.16
2023-01-13T12:00:47.529Z,100460.75
2023-01-13T12:04:13.695Z,100466.84
2023-01-13T12:07:51.128Z,100473.06
2023-01-13T12:11:28.484Z,100439.84
2023-01-13T12:14:52.722Z,100437.09
2023-01-13T12:18:13.995Z,100431.59
2023-01-13T12:21:36.759Z,100424.91
2023-01-13T12:25:01.609Z,100403.72
2023-01-13T12:28:33.084Z,100396.44
2023-01-13T12:31:41.979Z,100385.13
2023-01-13T12:35:30.051Z,100370.69
2023-01-13T12:43:56.811Z,100408.78
2023-01-13T12:47:09.585Z,100413.78
2023-01-13T12:50:27.101Z,100431.53
2023-01-13T12:53:36.351Z,100435.00
2023-01-13T12:56:42.534Z,100432.25
2023-01-13T13:00:05.155Z,100406.84
2023-01-13T13:03:19.310Z,100418.94
2023-01-13T13:06:29.719Z,100415.97
2023-01-13T13:09:38.647Z,100411.59
2023-01-13T13:13:04.201Z,100422.06
2023-01-13T13:16:44.018Z,100395.47
2023-01-13T13:20:22.094Z,100419.31
2023-01-13T13:23:54.595Z,100440.72
2023-01-13T13:26:57.002Z,100432.16
2023-01-13T13:30:27.889Z,100434.81
2023-01-13T13:34:06.951Z,100373.63
2023-01-13T13:38:03.221Z,100437.53
2023-01-13T13:41:39.625Z,100440.53
2023-01-13T13:45:25.839Z,100385.28
2023-01-13T13:48:31.176Z,100436.16
2023-01-13T13:52:02.567Z,100392.97
2023-01-13T13:55:19.999Z,100416.31
2023-01-13T13:58:23.582Z,100404.53
2023-01-13T14:01:39.674Z,100395.22
2023-01-13T14:05:13.034Z,100389.53
2023-01-13T14:08:26.163Z,100413.13
2023-01-13T14:11:33.084Z,100417.88
2023-01-13T14:14:35.572Z,100429.53
2023-01-13T14:17:38.999Z,100447.28
2023-01-13T14:20:42.922Z,100421.88
2023-01-13T14:24:15.800Z,100422.41
2023-01-13T14:27:19.620Z,100432.53
2023-01-13T14:30:23.520Z,100417.78
2023-01-13T14:33:40.870Z,100432.34
2023-01-13T14:36:44.635Z,100445.66
2023-01-13T14:39:47.321Z,100417.47
2023-01-13T14:43:04.595Z,100427.06
2023-01-13T14:46:15.208Z,100425.72
2023-01-13T14:50:01.160Z,100433.13
2023-01-13T14:53:05.418Z,100410.28
2023-01-13T14:56:56.118Z,100462.09
2023-01-13T15:00:22.323Z,100458.72
2023-01-13T15:03:24.663Z,100454.78
2023-01-13T15:06:34.844Z,100448.19
2023-01-13T15:09:41.752Z,100452.31
2023-01-13T15:12:47.208Z,100449.84
2023-01-13T15:15:56.695Z,100456.03
2023-01-13T15:19:00.093Z,100434.09
2023-01-13T15:22:09.864Z,100422.31
2023-01-13T15:28:53.962Z,100423.59
2023-01-13T15:31:56.526Z,100435.06
2023-01-13T15:35:25.405Z,100426.16
2023-01-13T15:42:34.928Z,100419.69
2023-01-13T15:45:56.496Z,100445.28
2023-01-13T15:49:02.087Z,100431.00
2023-01-13T15:52:12.673Z,100401.50
2023-01-13T15:55:15.271Z,100430.25
2023-01-13T15:58:21.142Z,100419.63
2023-01-13T16:01:26.117Z,100434.81
2023-01-13T16:04:37.966Z,100424.06
2023-01-13T16:07:43.544Z,100424.09
2023-01-13T16:10:50.782Z,100445.38
2023-01-13T16:14:00.213Z,100455.31
2023-01-13T16:17:16.908Z,100427.25
2023-01-13T16:20:19.571Z,100422.72
2023-01-13T16:23:23.018Z,100463.44
2023-01-13T16:26:27.988Z,100454.84
2023-01-13T16:29:30.286Z,100462.50
2023-01-13T16:32:32.674Z,100460.84
2023-01-13T16:35:35.456Z,100456.47
2023-01-13T16:38:57.833Z,100439.63
2023-01-13T16:42:00.254Z,100436.34
2023-01-13T16:45:08.384Z,100455.84
2023-01-13T16:48:19.510Z,100454.84
2023-01-13T16:51:22.877Z,100453.38
2023-01-13T16:54:25.201Z,100442.94
2023-01-13T16:57:27.537Z,100435.09
2023-01-13T17:00:29.805Z,100443.09
2023-01-13T17:03:36.042Z,100428.97
2023-01-13T17:06:58.014Z,100449.13
2023-01-13T17:10:00.338Z,100434.44
2023-01-13T17:13:14.710Z,100455.28
2023-01-13T17:16:22.698Z,100453.09
2023-01-13T17:19:25.819Z,100445.66
2023-01-13T17:22:28.174Z,100440.53
2023-01-13T17:25:30.771Z,100436.91
2023-01-13T17:28:33.241Z,100435.53
2023-01-13T17:31:36.419Z,100424.47
2023-01-13T17:34:40.231Z,100430.72
2023-01-13T17:37:42.565Z,100453.97
2023-01-13T17:40:45.841Z,100442.94
2023-01-13T17:43:48.210Z,100445.69
2023-01-13T17:46:50.740Z,100452.75
2023-01-13T17:49:53.227Z,100462.97
2023-01-13T17:52:55.588Z,100462.50
2023-01-13T17:55:58.039Z,100454.47
2023-01-13T17:59:00.311Z,100466.22
2023-01-13T18:02:03.097Z,100459.22
2023-01-13T18:05:05.784Z,100459.88
2023-01-13T18:08:08.946Z,100459.03
2023-01-13T18:11:11.456Z,100458.13
2023-01-13T18:14:13.845Z,100462.50
2023-01-13T18:17:17.041Z,100461.16
2023-01-13T18:20:38.061Z,100473.00
2023-01-13T18:23:58.971Z,100484.00
2023-01-13T18:27:23.028Z,100494.66
2023-01-13T18:30:25.691Z,100494.66
2023-01-13T18:33:28.027Z,100487.03
2023-01-13T18:36:30.344Z,100496.56
2023-01-13T18:39:32.882Z,100473.72
2023-01-13T18:42:51.515Z,100481.06
2023-01-13T18:45:53.987Z,100474.16
2023-01-13T18:48:56.412Z,100484.28
2023-01-13T18:51:58.789Z,100484.09
2023-01-13T18:55:01.119Z,100486.81
2023-01-13T18:58:03.799Z,100497.56
2023-01-13T19:01:06.945Z,100488.81
2023-01-13T19:04:15.827Z,100494.63
2023-01-13T19:07:23.618Z,100495.00
2023-01-13T19:10:28.036Z,100508.78
2023-01-13T19:13:30.609Z,100492.31
2023-01-13T19:16:32.902Z,100493.75
2023-01-13T19:19:43.898Z,100498.84
2023-01-13T19:22:53.785Z,100483.63
2023-01-13T19:26:08.872Z,100488.97
2023-01-13T19:29:11.278Z,100512.31
2023-01-13T19:32:13.830Z,100517.03
2023-01-13T19:35:18.164Z,100521.06
2023-01-13T19:38:20.836Z,100521.50
2023-01-13T19:41:41.693Z,100507.47
2023-01-13T19:45:02.582Z,100536.44
2023-01-13T19:48:07.421Z,100520.56
2023-01-13T19:51:10.575Z,100540.38
2023-01-13T19:54:12.954Z,100527.88
2023-01-13T19:57:15.755Z,100538.88
2023-01-13T20:00:20.827Z,100547.19
2023-01-13T20:03:25.955Z,100553.59
2023-01-13T20:06:28.306Z,100553.22
2023-01-13T20:09:31.171Z,100578.84
2023-01-13T20:12:33.618Z,100579.84
2023-01-13T20:15:38.056Z,100581.31
2023-01-13T20:18:40.571Z,100589.53
2023-01-13T20:21:43.257Z,100577.53
2023-01-13T20:24:45.626Z,100571.94
2023-01-13T20:27:48.316Z,100573.47
2023-01-13T20:30:50.880Z,100562.38
2023-01-13T20:33:53.248Z,100563.41
2023-01-13T20:36:55.615Z,100560.13
2023-01-13T20:40:01.490Z,100550.59
2023-01-13T20:43:04.318Z,100555.41
2023-01-13T20:46:06.595Z,100542.72
2023-01-13T20:49:12.480Z,100557.34
2023-01-13T20:52:14.752Z,100548.03
2023-01-13T20:55:17.115Z,100545.75
2023-01-13T20:58:19.543Z,100554.72
2023-01-13T21:01:22.340Z,100543.47
2023-01-13T21:04:24.943Z,100566.19
2023-01-13T21:07:28.410Z,100551.91
2023-01-13T21:10:30.759Z,100572.06
2023-01-13T21:13:51.604Z,100568.50
2023-01-13T21:16:53.902Z,100573.78
2023-01-13T21:19:56.564Z,100569.31
2023-01-13T21:22:59.619Z,100565.28
2023-01-13T21:26:01.974Z,100551.63
2023-01-13T21:29:04.511Z,100547.03
2023-01-13T21:32:06.921Z,100541.75
2023-01-13T21:35:09.543Z,100536.81
2023-01-13T21:38:12.254Z,100525.03
2023-01-13T21:41:15.153Z,100523.34
2023-01-13T21:44:38.555Z,100531.78
2023-01-13T21:47:49.848Z,100527.16
2023-01-13T21:50:52.251Z,100537.47
2023-01-13T21:53:55.296Z,100547.53
2023-01-13T21:56:57.610Z,100551.00
2023-01-13T21:59:59.985Z,100564.19
2023-01-13T22:03:04.402Z,100537.19
2023-01-13T22:06:06.903Z,100524.59
2023-01-13T22:09:09.144Z,100528.88
2023-01-13T22:12:11.558Z,100530.75
2023-01-13T22:15:15.679Z,100526.31
2023-01-13T22:18:20.993Z,100528.75
2023-01-13T22:21:23.299Z,100531.13
2023-01-13T22:24:25.766Z,100547.25
2023-01-13T22:27:29.216Z,100573.25
2023-01-13T22:30:32.710Z,100577.28
2023-01-13T22:33:35.074Z,100581.63
2023-01-13T22:36:37.471Z,100606.22
2023-01-13T22:39:39.795Z,100618.81
2023-01-13T22:42:42.995Z,100621.72
2023-01-13T22:45:45.427Z,100625.00
2023-01-13T22:48:48.472Z,100617.09
2023-01-13T22:51:50.936Z,100621.66
2023-01-13T22:54:53.269Z,100636.69
2023-01-13T22:57:55.587Z,100638.31
2023-01-13T23:01:08.447Z,100636.13
2023-01-13T23:04:13.287Z,100636.03
2023-01-13T23:07:15.670Z,100623.56
2023-01-13T23:10:18.161Z,100627.56
2023-01-13T23:13:20.446Z,100615.44
2023-01-13T23:16:22.937Z,100613.16
2023-01-13T23:19:25.299Z,100592.25
2023-01-13T23:22:28.013Z,100592.91
2023-01-13T23:25:30.257Z,100587.03
2023-01-13T23:28:33.470Z,100562.44
2023-01-13T23:31:35.914Z,100551.78
2023-01-13T23:34:38.849Z,100545.63
2023-01-13T23:37:42.032Z,100540.03
2023-01-13T23:40:45.421Z,100529.50
2023-01-13T23:43:52.690Z,100542.69
2023-01-13T23:46:55.041Z,100539.41
2023-01-13T23:49:57.978Z,100538.03
2023-01-13T23:53:00.303Z,100547.47
2023-01-13T23:56:04.685Z,100557.91
2023-01-13T23:59:08.076Z,100553.59
